Aérodrome :
LOGIN :

S'inscrire | Disclaimer

   EN    FR    IT 

 










Légende :    VFR   VFR Marginal   IFR   IFR Intensif   IFR Très Intensif
Visi : 
Plafond : 
>= 8 km
>= 3000ft
5 à 8 km
1000 à 3000 ft
1500m à 5 km
500 à 1000 ft
800 à 1500m
200 à 500 ft
< 800m
< 200 ft
Symboles :   Orages  Brouillard  Fortes neiges  Fortes précipitations  Vent > 20 kt
SIGMETs :   Divers  Orages  Givrage  Turbulence  Onde Orograph.  Cendres Volcan.






- Altitude de l'aérodrome : 517 ft
- Code IATA : GML


UKKM - Antonov

DERNIER METAR :
  • 091000Z AUTO 05003MPS 9999 // NCD 27/11 Q1018

METARs EXPIRÉS :
  • 090930Z AUTO 05004MPS 010V100 9999 // NCD 27/11 Q1018
  • 090900Z AUTO 05005MPS 020V110 9999 // NCD 26/11 Q1018
  • 090830Z AUTO 05004MPS 010V120 9999 // ///046/// 25/13 Q1018
  • 090800Z AUTO 05004MPS 350V080 9999 // ///045/// 25/14 Q1019

TAF TAF UKKM
Valide du 08 à 12h jusqu'au 09 à 12h UTC


081113Z 0812/0912 02004G09MPS 9999 BKN033 TX29/0812Z TN14/0903Z
TEMPO 0812/0816 05006G11MPS
BECMG 0816/0818 02003MPS



MET'MAP, la Météo Aéronautique d'un coup d'oeil ! - Copyright ORBIFLY Décembre 2007 - Disclaimer

ORBIFLY MET'MAP TEAM :

Programmation & Développement : Alexandra Zaïnal
Sur une idée originale de : Baudouin d'Aumeries
Assistance à la programmation : Marc-Olivier Méhu
Soutien technique & logistique : Manuel Goepfert

Contact : metmap@orbifly.com




SOURCES & CREDITS :

   NOAA